SFF weather

Felts Field
Spokane, Washington, United States

Public forecast

Using degrees Fahrenheit for public forecast. Weather courtesy of forecast.io.

METAR (pilot weather report)

Retrieved 2019/06/27 11:00 UTC (39 minutes ago):

KSFF 271100Z AUTO 00000KT 10SM FEW006 SCT019 13/11 A2996 RMK AO2 T01330111

TAF (pilot weather forecast)

Forecast is more than 12 hours old.

Retrieved 2019/06/26 00:36 UTC (1 day ago):

TAF KSFF 262332Z 2700/2724 05005KT P6SM VCTS SCT050CB OVC080 FM270100 24017G28KT 5SM TSRA SCT030CB OVC050 FM270230 20010KT P6SM -SHRA VCTS SCT040CB OVC070 FM270800 20007KT P6SM -SHRA BKN025 OVC035 FM271400 19005KT P6SM VCSH SCT050 BKN100 FM271800 20006KT P6SM BKN050